sensor_id;sensor_type;location;lat;lon;timestamp;temperature;humidity
39255;DHT22;24957;51.386;-2.352;2022-07-29T00:02:25;16.10;99.90
39255;DHT22;24957;51.386;-2.352;2022-07-29T00:04:51;16.00;99.90
39255;DHT22;24957;51.386;-2.352;2022-07-29T00:07:16;15.90;99.90
39255;DHT22;24957;51.386;-2.352;2022-07-29T00:09:42;15.90;99.90
39255;DHT22;24957;51.386;-2.352;2022-07-29T00:12:07;15.80;99.90
39255;DHT22;24957;51.386;-2.352;2022-07-29T00:14:33;15.70;99.90
39255;DHT22;24957;51.386;-2.352;2022-07-29T00:16:58;15.70;99.90
39255;DHT22;24957;51.386;-2.352;2022-07-29T00:19:24;15.80;99.90
39255;DHT22;24957;51.386;-2.352;2022-07-29T00:21:50;15.70;99.90
39255;DHT22;24957;51.386;-2.352;2022-07-29T00:24:15;15.80;99.90
39255;DHT22;24957;51.386;-2.352;2022-07-29T00:26:41;15.70;99.90
39255;DHT22;24957;51.386;-2.352;2022-07-29T00:29:07;15.70;99.90
39255;DHT22;24957;51.386;-2.352;2022-07-29T00:31:32;15.70;99.90
39255;DHT22;24957;51.386;-2.352;2022-07-29T00:33:58;15.70;99.90
39255;DHT22;24957;51.386;-2.352;2022-07-29T00:36:23;15.60;99.90
39255;DHT22;24957;51.386;-2.352;2022-07-29T00:38:49;15.60;99.90
39255;DHT22;24957;51.386;-2.352;2022-07-29T00:41:18;15.50;99.90
39255;DHT22;24957;51.386;-2.352;2022-07-29T00:43:44;15.60;99.90
39255;DHT22;24957;51.386;-2.352;2022-07-29T00:46:10;15.50;99.90
39255;DHT22;24957;51.386;-2.352;2022-07-29T00:48:36;15.40;99.90
39255;DHT22;24957;51.386;-2.352;2022-07-29T00:51:05;15.30;99.90
39255;DHT22;24957;51.386;-2.352;2022-07-29T00:53:30;15.30;99.90
39255;DHT22;24957;51.386;-2.352;2022-07-29T00:55:57;15.40;99.90
39255;DHT22;24957;51.386;-2.352;2022-07-29T00:58:23;15.30;99.90
39255;DHT22;24957;51.386;-2.352;2022-07-29T01:00:49;15.30;99.90
39255;DHT22;24957;51.386;-2.352;2022-07-29T01:03:15;15.20;99.90
39255;DHT22;24957;51.386;-2.352;2022-07-29T01:05:41;15.20;99.90
39255;DHT22;24957;51.386;-2.352;2022-07-29T01:08:08;15.20;99.90
39255;DHT22;24957;51.386;-2.352;2022-07-29T01:10:34;15.20;99.90
39255;DHT22;24957;51.386;-2.352;2022-07-29T01:13:02;15.20;99.90
39255;DHT22;24957;51.386;-2.352;2022-07-29T01:15:28;15.20;99.90
39255;DHT22;24957;51.386;-2.352;2022-07-29T01:18:00;15.20;99.90
39255;DHT22;24957;51.386;-2.352;2022-07-29T01:23:07;15.10;99.90
39255;DHT22;24957;51.386;-2.352;2022-07-29T01:25:48;15.10;99.90
39255;DHT22;24957;51.386;-2.352;2022-07-29T01:28:45;15.20;99.90
39255;DHT22;24957;51.386;-2.352;2022-07-29T01:31:05;15.20;99.90
39255;DHT22;24957;51.386;-2.352;2022-07-29T01:33:32;15.20;99.90
39255;DHT22;24957;51.386;-2.352;2022-07-29T01:36:14;15.20;99.90
39255;DHT22;24957;51.386;-2.352;2022-07-29T01:38:43;15.30;99.90
39255;DHT22;24957;51.386;-2.352;2022-07-29T01:41:15;15.50;99.90
39255;DHT22;24957;51.386;-2.352;2022-07-29T01:43:49;15.60;99.90
39255;DHT22;24957;51.386;-2.352;2022-07-29T01:46:19;15.50;99.90
39255;DHT22;24957;51.386;-2.352;2022-07-29T01:48:50;15.50;99.90
39255;DHT22;24957;51.386;-2.352;2022-07-29T01:51:19;15.50;99.90
39255;DHT22;24957;51.386;-2.352;2022-07-29T01:53:46;15.40;99.90
39255;DHT22;24957;51.386;-2.352;2022-07-29T01:56:13;15.30;99.90
39255;DHT22;24957;51.386;-2.352;2022-07-29T01:58:41;15.30;99.90
39255;DHT22;24957;51.386;-2.352;2022-07-29T02:01:08;15.20;99.90
39255;DHT22;24957;51.386;-2.352;2022-07-29T02:03:35;15.20;99.90
39255;DHT22;24957;51.386;-2.352;2022-07-29T02:06:01;15.10;99.90
39255;DHT22;24957;51.386;-2.352;2022-07-29T02:08:28;15.20;99.90
39255;DHT22;24957;51.386;-2.352;2022-07-29T02:10:54;15.10;99.90
39255;DHT22;24957;51.386;-2.352;2022-07-29T02:13:20;15.00;99.90
39255;DHT22;24957;51.386;-2.352;2022-07-29T02:15:47;14.80;99.90
39255;DHT22;24957;51.386;-2.352;2022-07-29T02:18:15;14.70;99.90
39255;DHT22;24957;51.386;-2.352;2022-07-29T02:20:45;14.80;99.90
39255;DHT22;24957;51.386;-2.352;2022-07-29T02:23:12;14.80;99.90
39255;DHT22;24957;51.386;-2.352;2022-07-29T02:25:38;14.80;99.90
39255;DHT22;24957;51.386;-2.352;2022-07-29T02:28:05;14.80;99.90
39255;DHT22;24957;51.386;-2.352;2022-07-29T02:30:31;14.70;99.90
39255;DHT22;24957;51.386;-2.352;2022-07-29T02:32:57;14.60;99.90
39255;DHT22;24957;51.386;-2.352;2022-07-29T02:35:23;14.60;99.90
39255;DHT22;24957;51.386;-2.352;2022-07-29T02:37:48;14.70;99.90
39255;DHT22;24957;51.386;-2.352;2022-07-29T02:40:36;14.70;99.90
39255;DHT22;24957;51.386;-2.352;2022-07-29T02:43:03;14.60;99.90
39255;DHT22;24957;51.386;-2.352;2022-07-29T02:45:29;14.70;99.90
39255;DHT22;24957;51.386;-2.352;2022-07-29T02:47:55;14.60;99.90
39255;DHT22;24957;51.386;-2.352;2022-07-29T02:50:30;14.70;99.90
39255;DHT22;24957;51.386;-2.352;2022-07-29T02:53:01;14.60;99.90
39255;DHT22;24957;51.386;-2.352;2022-07-29T02:55:39;14.60;99.90
39255;DHT22;24957;51.386;-2.352;2022-07-29T03:00:53;14.50;99.90
39255;DHT22;24957;51.386;-2.352;2022-07-29T03:03:20;14.50;99.90
39255;DHT22;24957;51.386;-2.352;2022-07-29T03:05:46;14.60;99.90
39255;DHT22;24957;51.386;-2.352;2022-07-29T03:08:12;14.50;99.90
39255;DHT22;24957;51.386;-2.352;2022-07-29T03:10:39;14.30;99.90
39255;DHT22;24957;51.386;-2.352;2022-07-29T03:13:07;14.30;99.90
39255;DHT22;24957;51.386;-2.352;2022-07-29T03:15:34;14.30;99.90
39255;DHT22;24957;51.386;-2.352;2022-07-29T03:18:00;14.20;99.90
39255;DHT22;24957;51.386;-2.352;2022-07-29T03:20:26;14.20;99.90
39255;DHT22;24957;51.386;-2.352;2022-07-29T03:22:51;14.20;99.90
39255;DHT22;24957;51.386;-2.352;2022-07-29T03:25:18;14.10;99.90
39255;DHT22;24957;51.386;-2.352;2022-07-29T03:27:44;14.20;99.90
39255;DHT22;24957;51.386;-2.352;2022-07-29T03:30:10;14.20;99.90
39255;DHT22;24957;51.386;-2.352;2022-07-29T03:32:36;14.20;99.90
39255;DHT22;24957;51.386;-2.352;2022-07-29T03:35:01;14.20;99.90
39255;DHT22;24957;51.386;-2.352;2022-07-29T03:37:27;14.30;99.90
39255;DHT22;24957;51.386;-2.352;2022-07-29T03:39:56;14.20;99.90
39255;DHT22;24957;51.386;-2.352;2022-07-29T03:42:23;14.30;99.90
39255;DHT22;24957;51.386;-2.352;2022-07-29T03:44:49;14.20;99.90
39255;DHT22;24957;51.386;-2.352;2022-07-29T03:47:16;14.10;99.90
39255;DHT22;24957;51.386;-2.352;2022-07-29T03:49:42;14.10;99.90
39255;DHT22;24957;51.386;-2.352;2022-07-29T03:52:09;14.20;99.90
39255;DHT22;24957;51.386;-2.352;2022-07-29T03:54:35;14.20;99.90
39255;DHT22;24957;51.386;-2.352;2022-07-29T03:57:01;14.20;99.90
39255;DHT22;24957;51.386;-2.352;2022-07-29T03:59:27;14.20;99.90
39255;DHT22;24957;51.386;-2.352;2022-07-29T04:01:52;14.20;99.90
39255;DHT22;24957;51.386;-2.352;2022-07-29T04:04:18;14.10;99.90
39255;DHT22;24957;51.386;-2.352;2022-07-29T04:06:45;14.10;99.90
39255;DHT22;24957;51.386;-2.352;2022-07-29T04:09:11;14.00;99.90
39255;DHT22;24957;51.386;-2.352;2022-07-29T04:11:38;14.10;99.90
39255;DHT22;24957;51.386;-2.352;2022-07-29T04:14:04;14.00;99.90
39255;DHT22;24957;51.386;-2.352;2022-07-29T04:16:29;13.90;99.90
39255;DHT22;24957;51.386;-2.352;2022-07-29T04:18:55;13.90;99.90
39255;DHT22;24957;51.386;-2.352;2022-07-29T04:21:20;13.90;99.90
39255;DHT22;24957;51.386;-2.352;2022-07-29T04:23:46;13.80;99.90
39255;DHT22;24957;51.386;-2.352;2022-07-29T04:26:15;13.80;99.90
39255;DHT22;24957;51.386;-2.352;2022-07-29T04:28:41;13.80;99.90
39255;DHT22;24957;51.386;-2.352;2022-07-29T04:31:08;13.80;99.90
39255;DHT22;24957;51.386;-2.352;2022-07-29T04:33:33;13.70;99.90
39255;DHT22;24957;51.386;-2.352;2022-07-29T04:35:59;13.70;99.90
39255;DHT22;24957;51.386;-2.352;2022-07-29T04:38:25;13.80;99.90
39255;DHT22;24957;51.386;-2.352;2022-07-29T04:40:50;13.80;99.90
39255;DHT22;24957;51.386;-2.352;2022-07-29T04:43:16;13.80;99.90
39255;DHT22;24957;51.386;-2.352;2022-07-29T04:45:41;13.80;99.90
39255;DHT22;24957;51.386;-2.352;2022-07-29T04:48:07;13.70;99.90
39255;DHT22;24957;51.386;-2.352;2022-07-29T04:50:32;13.80;99.90
39255;DHT22;24957;51.386;-2.352;2022-07-29T04:52:58;13.80;99.90
39255;DHT22;24957;51.386;-2.352;2022-07-29T04:55:23;13.80;99.90
39255;DHT22;24957;51.386;-2.352;2022-07-29T04:57:50;13.70;99.90
39255;DHT22;24957;51.386;-2.352;2022-07-29T05:00:15;13.70;99.90
39255;DHT22;24957;51.386;-2.352;2022-07-29T05:02:41;13.70;99.90
39255;DHT22;24957;51.386;-2.352;2022-07-29T05:05:07;13.70;99.90
39255;DHT22;24957;51.386;-2.352;2022-07-29T05:07:35;13.60;99.90
39255;DHT22;24957;51.386;-2.352;2022-07-29T05:10:03;13.60;99.90
39255;DHT22;24957;51.386;-2.352;2022-07-29T05:12:29;13.70;99.90
39255;DHT22;24957;51.386;-2.352;2022-07-29T05:14:55;13.50;99.90
39255;DHT22;24957;51.386;-2.352;2022-07-29T05:17:20;13.50;99.90
39255;DHT22;24957;51.386;-2.352;2022-07-29T05:19:46;13.40;99.90
39255;DHT22;24957;51.386;-2.352;2022-07-29T05:22:12;13.30;99.90
39255;DHT22;24957;51.386;-2.352;2022-07-29T05:24:37;13.30;99.90
39255;DHT22;24957;51.386;-2.352;2022-07-29T05:27:03;13.30;99.90
39255;DHT22;24957;51.386;-2.352;2022-07-29T05:29:29;13.40;99.90
39255;DHT22;24957;51.386;-2.352;2022-07-29T05:31:54;13.40;99.90
39255;DHT22;24957;51.386;-2.352;2022-07-29T05:34:20;13.40;99.90
39255;DHT22;24957;51.386;-2.352;2022-07-29T05:36:45;13.40;99.90
39255;DHT22;24957;51.386;-2.352;2022-07-29T05:39:11;13.40;99.90
39255;DHT22;24957;51.386;-2.352;2022-07-29T05:41:38;13.50;99.90
39255;DHT22;24957;51.386;-2.352;2022-07-29T05:44:04;13.50;99.90
39255;DHT22;24957;51.386;-2.352;2022-07-29T05:46:29;13.60;99.90
39255;DHT22;24957;51.386;-2.352;2022-07-29T05:48:55;13.60;99.90
39255;DHT22;24957;51.386;-2.352;2022-07-29T05:51:21;13.60;99.90
39255;DHT22;24957;51.386;-2.352;2022-07-29T05:53:47;13.60;99.90
39255;DHT22;24957;51.386;-2.352;2022-07-29T05:56:12;13.70;99.90
39255;DHT22;24957;51.386;-2.352;2022-07-29T05:58:38;13.70;99.90
39255;DHT22;24957;51.386;-2.352;2022-07-29T06:01:03;13.80;99.90
39255;DHT22;24957;51.386;-2.352;2022-07-29T06:03:29;13.80;99.90
39255;DHT22;24957;51.386;-2.352;2022-07-29T06:05:55;13.90;99.90
39255;DHT22;24957;51.386;-2.352;2022-07-29T06:08:21;13.90;99.90
39255;DHT22;24957;51.386;-2.352;2022-07-29T06:10:46;14.00;99.90
39255;DHT22;24957;51.386;-2.352;2022-07-29T06:13:12;14.00;99.90
39255;DHT22;24957;51.386;-2.352;2022-07-29T06:15:38;14.10;99.90
39255;DHT22;24957;51.386;-2.352;2022-07-29T06:18:04;14.20;99.90
39255;DHT22;24957;51.386;-2.352;2022-07-29T06:20:32;14.20;99.90
39255;DHT22;24957;51.386;-2.352;2022-07-29T06:22:58;14.30;99.90
39255;DHT22;24957;51.386;-2.352;2022-07-29T06:25:24;14.50;99.90
39255;DHT22;24957;51.386;-2.352;2022-07-29T06:27:50;14.60;99.90
39255;DHT22;24957;51.386;-2.352;2022-07-29T06:30:15;14.70;99.90
39255;DHT22;24957;51.386;-2.352;2022-07-29T06:32:41;14.90;99.90
39255;DHT22;24957;51.386;-2.352;2022-07-29T06:35:07;15.10;99.90
39255;DHT22;24957;51.386;-2.352;2022-07-29T06:37:35;15.20;99.90
39255;DHT22;24957;51.386;-2.352;2022-07-29T06:40:00;15.30;99.90
39255;DHT22;24957;51.386;-2.352;2022-07-29T06:42:44;15.40;99.90
39255;DHT22;24957;51.386;-2.352;2022-07-29T06:45:10;15.60;99.90
39255;DHT22;24957;51.386;-2.352;2022-07-29T06:47:36;15.80;99.90
39255;DHT22;24957;51.386;-2.352;2022-07-29T06:50:02;15.90;99.90
39255;DHT22;24957;51.386;-2.352;2022-07-29T06:52:27;15.90;99.90
39255;DHT22;24957;51.386;-2.352;2022-07-29T06:54:53;16.00;99.90
39255;DHT22;24957;51.386;-2.352;2022-07-29T06:57:20;16.10;99.90
39255;DHT22;24957;51.386;-2.352;2022-07-29T06:59:49;16.20;99.90
39255;DHT22;24957;51.386;-2.352;2022-07-29T07:02:14;16.50;99.90
39255;DHT22;24957;51.386;-2.352;2022-07-29T07:04:40;16.60;99.90
39255;DHT22;24957;51.386;-2.352;2022-07-29T07:07:05;16.70;99.90
39255;DHT22;24957;51.386;-2.352;2022-07-29T07:09:31;16.80;99.90
39255;DHT22;24957;51.386;-2.352;2022-07-29T07:11:56;16.90;99.90
39255;DHT22;24957;51.386;-2.352;2022-07-29T07:14:22;16.90;99.90
39255;DHT22;24957;51.386;-2.352;2022-07-29T07:16:51;17.00;99.90
39255;DHT22;24957;51.386;-2.352;2022-07-29T07:19:16;17.00;99.90
39255;DHT22;24957;51.386;-2.352;2022-07-29T07:21:43;17.10;99.90
39255;DHT22;24957;51.386;-2.352;2022-07-29T07:24:08;17.20;99.90
39255;DHT22;24957;51.386;-2.352;2022-07-29T07:26:34;17.30;99.90
39255;DHT22;24957;51.386;-2.352;2022-07-29T07:29:00;17.40;99.90
39255;DHT22;24957;51.386;-2.352;2022-07-29T07:31:25;17.40;99.90
39255;DHT22;24957;51.386;-2.352;2022-07-29T07:33:51;17.60;99.90
39255;DHT22;24957;51.386;-2.352;2022-07-29T07:36:18;17.60;99.90
39255;DHT22;24957;51.386;-2.352;2022-07-29T07:38:44;17.80;99.90
39255;DHT22;24957;51.386;-2.352;2022-07-29T07:41:09;17.80;99.90
39255;DHT22;24957;51.386;-2.352;2022-07-29T07:43:35;17.80;99.90
39255;DHT22;24957;51.386;-2.352;2022-07-29T07:46:01;18.00;99.90
39255;DHT22;24957;51.386;-2.352;2022-07-29T07:48:26;18.10;99.90
39255;DHT22;24957;51.386;-2.352;2022-07-29T07:50:52;18.10;99.90
39255;DHT22;24957;51.386;-2.352;2022-07-29T07:53:17;18.20;99.90
39255;DHT22;24957;51.386;-2.352;2022-07-29T07:55:43;18.30;99.90
39255;DHT22;24957;51.386;-2.352;2022-07-29T07:58:09;18.30;99.90
39255;DHT22;24957;51.386;-2.352;2022-07-29T08:00:35;18.40;99.90
39255;DHT22;24957;51.386;-2.352;2022-07-29T08:03:01;18.60;99.90
39255;DHT22;24957;51.386;-2.352;2022-07-29T08:05:26;18.70;99.90
39255;DHT22;24957;51.386;-2.352;2022-07-29T08:07:52;18.70;99.90
39255;DHT22;24957;51.386;-2.352;2022-07-29T08:10:18;18.80;99.90
39255;DHT22;24957;51.386;-2.352;2022-07-29T08:13:04;19.00;99.90
39255;DHT22;24957;51.386;-2.352;2022-07-29T08:15:30;19.00;99.90
39255;DHT22;24957;51.386;-2.352;2022-07-29T08:17:56;19.20;99.90
39255;DHT22;24957;51.386;-2.352;2022-07-29T08:20:21;19.30;99.90
39255;DHT22;24957;51.386;-2.352;2022-07-29T08:22:47;19.40;99.90
39255;DHT22;24957;51.386;-2.352;2022-07-29T08:25:13;19.50;99.90
39255;DHT22;24957;51.386;-2.352;2022-07-29T08:27:38;19.60;99.90
39255;DHT22;24957;51.386;-2.352;2022-07-29T08:30:04;19.80;99.90
39255;DHT22;24957;51.386;-2.352;2022-07-29T08:32:30;19.80;99.90
39255;DHT22;24957;51.386;-2.352;2022-07-29T08:34:56;19.80;99.90
39255;DHT22;24957;51.386;-2.352;2022-07-29T08:37:22;19.80;99.90
39255;DHT22;24957;51.386;-2.352;2022-07-29T08:39:47;20.00;99.90
39255;DHT22;24957;51.386;-2.352;2022-07-29T08:42:13;20.20;99.90
39255;DHT22;24957;51.386;-2.352;2022-07-29T08:44:39;20.30;99.90
39255;DHT22;24957;51.386;-2.352;2022-07-29T08:47:04;20.40;99.90
39255;DHT22;24957;51.386;-2.352;2022-07-29T08:49:32;20.60;99.90
39255;DHT22;24957;51.386;-2.352;2022-07-29T08:51:58;20.80;99.90
39255;DHT22;24957;51.386;-2.352;2022-07-29T08:54:25;21.00;99.90
39255;DHT22;24957;51.386;-2.352;2022-07-29T08:56:51;21.10;99.90
39255;DHT22;24957;51.386;-2.352;2022-07-29T08:59:18;21.20;99.90
39255;DHT22;24957;51.386;-2.352;2022-07-29T09:01:44;21.30;99.90
39255;DHT22;24957;51.386;-2.352;2022-07-29T09:04:11;21.30;98.90
39255;DHT22;24957;51.386;-2.352;2022-07-29T09:06:39;21.40;96.20
39255;DHT22;24957;51.386;-2.352;2022-07-29T09:09:05;21.50;95.50
39255;DHT22;24957;51.386;-2.352;2022-07-29T09:11:32;21.60;89.80
39255;DHT22;24957;51.386;-2.352;2022-07-29T09:13:58;21.70;90.40
39255;DHT22;24957;51.386;-2.352;2022-07-29T09:16:24;21.70;88.30
39255;DHT22;24957;51.386;-2.352;2022-07-29T09:18:50;21.80;88.60
39255;DHT22;24957;51.386;-2.352;2022-07-29T09:21:16;21.90;90.70
39255;DHT22;24957;51.386;-2.352;2022-07-29T09:26:29;22.20;84.80
39255;DHT22;24957;51.386;-2.352;2022-07-29T09:28:55;22.10;85.00
39255;DHT22;24957;51.386;-2.352;2022-07-29T09:31:26;22.10;81.60
39255;DHT22;24957;51.386;-2.352;2022-07-29T09:33:57;22.00;80.70
39255;DHT22;24957;51.386;-2.352;2022-07-29T09:36:25;22.00;80.20
39255;DHT22;24957;51.386;-2.352;2022-07-29T09:38:57;21.90;80.80
39255;DHT22;24957;51.386;-2.352;2022-07-29T09:41:24;21.80;80.00
39255;DHT22;24957;51.386;-2.352;2022-07-29T09:43:54;21.80;80.20
39255;DHT22;24957;51.386;-2.352;2022-07-29T09:46:19;21.90;82.30
39255;DHT22;24957;51.386;-2.352;2022-07-29T09:48:45;22.10;77.10
39255;DHT22;24957;51.386;-2.352;2022-07-29T09:51:30;22.20;77.00
39255;DHT22;24957;51.386;-2.352;2022-07-29T09:53:56;22.20;75.80
39255;DHT22;24957;51.386;-2.352;2022-07-29T09:56:40;22.10;76.70
39255;DHT22;24957;51.386;-2.352;2022-07-29T09:59:06;22.20;76.30
39255;DHT22;24957;51.386;-2.352;2022-07-29T10:01:32;22.20;77.10
39255;DHT22;24957;51.386;-2.352;2022-07-29T10:03:57;22.30;78.90
39255;DHT22;24957;51.386;-2.352;2022-07-29T10:06:23;22.40;76.60
39255;DHT22;24957;51.386;-2.352;2022-07-29T10:08:49;22.50;74.60
39255;DHT22;24957;51.386;-2.352;2022-07-29T10:13:41;22.70;69.20
39255;DHT22;24957;51.386;-2.352;2022-07-29T10:16:07;22.70;69.60
39255;DHT22;24957;51.386;-2.352;2022-07-29T10:18:33;22.60;69.30
39255;DHT22;24957;51.386;-2.352;2022-07-29T10:20:59;22.80;68.20
39255;DHT22;24957;51.386;-2.352;2022-07-29T10:23:27;23.00;67.60
39255;DHT22;24957;51.386;-2.352;2022-07-29T10:25:53;23.00;68.00
39255;DHT22;24957;51.386;-2.352;2022-07-29T10:28:19;23.00;68.00
39255;DHT22;24957;51.386;-2.352;2022-07-29T10:30:44;23.10;67.70
39255;DHT22;24957;51.386;-2.352;2022-07-29T10:38:43;23.10;66.30
39255;DHT22;24957;51.386;-2.352;2022-07-29T10:46:23;23.40;65.10
39255;DHT22;24957;51.386;-2.352;2022-07-29T10:54:13;23.30;63.80
39255;DHT22;24957;51.386;-2.352;2022-07-29T10:56:39;23.20;64.80
39255;DHT22;24957;51.386;-2.352;2022-07-29T11:01:43;23.50;64.60
39255;DHT22;24957;51.386;-2.352;2022-07-29T11:04:09;23.60;62.80
39255;DHT22;24957;51.386;-2.352;2022-07-29T11:07:08;23.50;62.50
39255;DHT22;24957;51.386;-2.352;2022-07-29T11:09:29;23.70;62.90
39255;DHT22;24957;51.386;-2.352;2022-07-29T11:11:56;23.70;63.40
39255;DHT22;24957;51.386;-2.352;2022-07-29T11:17:06;24.20;59.10
39255;DHT22;24957;51.386;-2.352;2022-07-29T11:19:33;24.20;57.60
39255;DHT22;24957;51.386;-2.352;2022-07-29T11:21:59;24.20;58.70
39255;DHT22;24957;51.386;-2.352;2022-07-29T11:24:28;24.10;58.00
39255;DHT22;24957;51.386;-2.352;2022-07-29T11:27:05;24.00;57.60
39255;DHT22;24957;51.386;-2.352;2022-07-29T11:29:31;23.80;57.50
39255;DHT22;24957;51.386;-2.352;2022-07-29T11:32:13;23.90;57.50
39255;DHT22;24957;51.386;-2.352;2022-07-29T11:34:40;24.00;57.90
39255;DHT22;24957;51.386;-2.352;2022-07-29T11:39:32;24.30;56.60
39255;DHT22;24957;51.386;-2.352;2022-07-29T11:44:55;24.50;54.10
39255;DHT22;24957;51.386;-2.352;2022-07-29T11:47:21;24.50;54.70
39255;DHT22;24957;51.386;-2.352;2022-07-29T11:49:48;24.50;54.00
39255;DHT22;24957;51.386;-2.352;2022-07-29T11:52:14;24.50;54.20
39255;DHT22;24957;51.386;-2.352;2022-07-29T11:54:39;24.30;55.30
39255;DHT22;24957;51.386;-2.352;2022-07-29T11:57:10;24.30;54.50
39255;DHT22;24957;51.386;-2.352;2022-07-29T11:59:39;24.30;54.60
39255;DHT22;24957;51.386;-2.352;2022-07-29T12:02:06;24.40;55.10
39255;DHT22;24957;51.386;-2.352;2022-07-29T12:04:32;24.50;55.30
39255;DHT22;24957;51.386;-2.352;2022-07-29T12:06:58;24.50;54.70
39255;DHT22;24957;51.386;-2.352;2022-07-29T12:09:23;24.70;55.40
39255;DHT22;24957;51.386;-2.352;2022-07-29T12:11:55;25.00;55.30
39255;DHT22;24957;51.386;-2.352;2022-07-29T12:14:27;24.90;53.10
39255;DHT22;24957;51.386;-2.352;2022-07-29T12:16:53;24.90;53.50
39255;DHT22;24957;51.386;-2.352;2022-07-29T12:19:19;24.60;53.20
39255;DHT22;24957;51.386;-2.352;2022-07-29T12:21:49;24.60;54.90
39255;DHT22;24957;51.386;-2.352;2022-07-29T12:24:15;24.80;53.30
39255;DHT22;24957;51.386;-2.352;2022-07-29T12:29:18;25.00;53.10
39255;DHT22;24957;51.386;-2.352;2022-07-29T12:31:45;25.10;52.40
39255;DHT22;24957;51.386;-2.352;2022-07-29T12:34:15;25.20;51.60
39255;DHT22;24957;51.386;-2.352;2022-07-29T12:36:42;25.30;53.00
39255;DHT22;24957;51.386;-2.352;2022-07-29T12:39:08;25.40;52.40
39255;DHT22;24957;51.386;-2.352;2022-07-29T12:41:34;25.40;51.70
39255;DHT22;24957;51.386;-2.352;2022-07-29T12:44:00;25.40;52.60
39255;DHT22;24957;51.386;-2.352;2022-07-29T12:46:26;25.50;51.00
39255;DHT22;24957;51.386;-2.352;2022-07-29T12:48:53;25.30;50.60
39255;DHT22;24957;51.386;-2.352;2022-07-29T12:51:33;25.10;51.10
39255;DHT22;24957;51.386;-2.352;2022-07-29T12:54:16;24.90;50.60
39255;DHT22;24957;51.386;-2.352;2022-07-29T12:56:43;24.90;50.50
39255;DHT22;24957;51.386;-2.352;2022-07-29T13:01:37;25.30;49.50
39255;DHT22;24957;51.386;-2.352;2022-07-29T13:04:02;25.60;52.70
39255;DHT22;24957;51.386;-2.352;2022-07-29T13:09:05;25.50;47.00
39255;DHT22;24957;51.386;-2.352;2022-07-29T13:11:31;25.50;51.50
39255;DHT22;24957;51.386;-2.352;2022-07-29T13:13:57;25.60;51.40
39255;DHT22;24957;51.386;-2.352;2022-07-29T13:16:23;25.60;48.10
39255;DHT22;24957;51.386;-2.352;2022-07-29T13:19:02;25.70;48.80
39255;DHT22;24957;51.386;-2.352;2022-07-29T13:21:28;26.00;47.40
39255;DHT22;24957;51.386;-2.352;2022-07-29T13:23:53;26.10;46.70
39255;DHT22;24957;51.386;-2.352;2022-07-29T13:26:19;25.90;46.90
39255;DHT22;24957;51.386;-2.352;2022-07-29T13:28:44;25.70;47.50
39255;DHT22;24957;51.386;-2.352;2022-07-29T13:31:10;25.70;46.90
39255;DHT22;24957;51.386;-2.352;2022-07-29T13:33:36;25.70;46.80
39255;DHT22;24957;51.386;-2.352;2022-07-29T13:36:02;26.00;46.80
39255;DHT22;24957;51.386;-2.352;2022-07-29T13:38:27;25.80;46.30
39255;DHT22;24957;51.386;-2.352;2022-07-29T13:40:53;25.80;47.10
39255;DHT22;24957;51.386;-2.352;2022-07-29T13:43:19;26.00;46.90
39255;DHT22;24957;51.386;-2.352;2022-07-29T13:45:44;26.00;46.60
39255;DHT22;24957;51.386;-2.352;2022-07-29T13:48:10;26.20;45.80
39255;DHT22;24957;51.386;-2.352;2022-07-29T13:50:36;26.50;46.00
39255;DHT22;24957;51.386;-2.352;2022-07-29T13:53:01;26.60;45.60
39255;DHT22;24957;51.386;-2.352;2022-07-29T13:55:27;26.60;44.60
39255;DHT22;24957;51.386;-2.352;2022-07-29T13:57:53;26.60;44.70
39255;DHT22;24957;51.386;-2.352;2022-07-29T14:00:18;26.60;45.80
39255;DHT22;24957;51.386;-2.352;2022-07-29T14:02:44;26.70;45.70
39255;DHT22;24957;51.386;-2.352;2022-07-29T14:05:10;26.70;43.90
39255;DHT22;24957;51.386;-2.352;2022-07-29T14:07:38;26.90;44.10
39255;DHT22;24957;51.386;-2.352;2022-07-29T14:10:04;26.80;43.40
39255;DHT22;24957;51.386;-2.352;2022-07-29T14:12:30;26.70;44.20
39255;DHT22;24957;51.386;-2.352;2022-07-29T14:14:55;27.00;44.20
39255;DHT22;24957;51.386;-2.352;2022-07-29T14:17:21;27.10;43.70
39255;DHT22;24957;51.386;-2.352;2022-07-29T14:19:47;27.20;44.30
39255;DHT22;24957;51.386;-2.352;2022-07-29T14:22:13;27.30;44.40
39255;DHT22;24957;51.386;-2.352;2022-07-29T14:24:38;27.40;47.40
39255;DHT22;24957;51.386;-2.352;2022-07-29T14:27:04;27.60;46.00
39255;DHT22;24957;51.386;-2.352;2022-07-29T14:29:30;27.30;43.50
39255;DHT22;24957;51.386;-2.352;2022-07-29T14:31:56;27.20;45.00
39255;DHT22;24957;51.386;-2.352;2022-07-29T14:34:21;27.20;48.60
39255;DHT22;24957;51.386;-2.352;2022-07-29T14:36:47;27.40;43.80
39255;DHT22;24957;51.386;-2.352;2022-07-29T14:39:13;27.40;42.90
39255;DHT22;24957;51.386;-2.352;2022-07-29T14:41:38;27.50;43.30
39255;DHT22;24957;51.386;-2.352;2022-07-29T14:44:04;27.90;42.60
39255;DHT22;24957;51.386;-2.352;2022-07-29T14:46:29;28.00;42.30
39255;DHT22;24957;51.386;-2.352;2022-07-29T14:48:56;28.40;42.40
39255;DHT22;24957;51.386;-2.352;2022-07-29T14:51:21;28.30;42.10
39255;DHT22;24957;51.386;-2.352;2022-07-29T14:53:47;28.30;41.40
39255;DHT22;24957;51.386;-2.352;2022-07-29T14:56:12;28.70;41.20
39255;DHT22;24957;51.386;-2.352;2022-07-29T14:58:38;29.40;40.60
39255;DHT22;24957;51.386;-2.352;2022-07-29T15:01:03;30.40;38.90
39255;DHT22;24957;51.386;-2.352;2022-07-29T15:03:29;30.20;38.50
39255;DHT22;24957;51.386;-2.352;2022-07-29T15:05:55;30.10;38.10
39255;DHT22;24957;51.386;-2.352;2022-07-29T15:08:20;29.80;37.80
39255;DHT22;24957;51.386;-2.352;2022-07-29T15:10:46;29.60;38.10
39255;DHT22;24957;51.386;-2.352;2022-07-29T15:13:12;29.70;38.00
39255;DHT22;24957;51.386;-2.352;2022-07-29T15:15:38;29.60;39.70
39255;DHT22;24957;51.386;-2.352;2022-07-29T15:18:03;29.60;38.50
39255;DHT22;24957;51.386;-2.352;2022-07-29T15:20:29;30.00;36.90
39255;DHT22;24957;51.386;-2.352;2022-07-29T15:22:55;30.60;36.10
39255;DHT22;24957;51.386;-2.352;2022-07-29T15:25:21;30.50;36.50
39255;DHT22;24957;51.386;-2.352;2022-07-29T15:27:47;30.60;40.10
39255;DHT22;24957;51.386;-2.352;2022-07-29T15:30:12;30.60;36.30
39255;DHT22;24957;51.386;-2.352;2022-07-29T15:32:40;30.30;36.90
39255;DHT22;24957;51.386;-2.352;2022-07-29T15:35:06;30.10;37.50
39255;DHT22;24957;51.386;-2.352;2022-07-29T15:37:32;29.80;37.90
39255;DHT22;24957;51.386;-2.352;2022-07-29T15:40:00;29.60;38.60
39255;DHT22;24957;51.386;-2.352;2022-07-29T15:42:25;29.40;37.70
39255;DHT22;24957;51.386;-2.352;2022-07-29T15:44:51;29.40;37.60
39255;DHT22;24957;51.386;-2.352;2022-07-29T15:47:16;29.20;38.20
39255;DHT22;24957;51.386;-2.352;2022-07-29T15:49:42;29.20;38.30
39255;DHT22;24957;51.386;-2.352;2022-07-29T15:52:09;29.20;38.60
39255;DHT22;24957;51.386;-2.352;2022-07-29T15:54:35;29.10;38.80
39255;DHT22;24957;51.386;-2.352;2022-07-29T15:57:01;29.40;38.00
39255;DHT22;24957;51.386;-2.352;2022-07-29T15:59:30;29.80;37.90